Time;durP1;ratioP1;P1;durP2;ratioP2;P2;SDS_P1;SDS_P2;PMS_P1;PMS_P2;Temp;Humidity;BMP_temperature;BMP_pressure;BME280_temperature;BME280_humidity;BME280_pressure;Samples;Min_cycle;Max_cycle;Signal;HPM_P1;HPM_P2
2022/05/04 00:01:27;;;;;;;;;;;9.50;89.90;;;;;;5095250;27;38435;-55
2022/05/04 00:03:54;;;;;;;;;;;9.50;90.20;;;;;;5096018;27;37771;-55
2022/05/04 00:06:21;;;;;;;;;;;9.50;90.00;;;;;;5094083;27;36505;-53
2022/05/04 00:08:49;;;;;;;;;;;9.50;90.00;;;;;;5094844;27;37773;-55
2022/05/04 00:11:16;;;;;;;;;;;9.50;89.00;;;;;;5095918;27;37580;-55
2022/05/04 00:13:43;;;;;;;;;;;9.40;88.50;;;;;;5098137;27;39101;-55
2022/05/04 00:16:14;;;;;;;;;;;9.40;88.90;;;;;;5095205;27;37742;-55
2022/05/04 00:18:44;;;;;;;;;;;9.40;90.00;;;;;;5095074;27;37132;-55
2022/05/04 00:21:13;;;;;;;;;;;9.30;90.20;;;;;;5096293;27;39725;-55
2022/05/04 00:23:40;;;;;;;;;;;9.30;90.10;;;;;;5095494;27;37433;-55
2022/05/04 00:26:08;;;;;;;;;;;9.30;89.80;;;;;;5093727;27;39577;-55
2022/05/04 00:28:35;;;;;;;;;;;9.30;90.20;;;;;;5095007;27;38058;-55
2022/05/04 00:31:02;;;;;;;;;;;9.30;90.30;;;;;;5096012;27;37842;-55
2022/05/04 00:33:30;;;;;;;;;;;9.30;90.60;;;;;;5096822;27;38834;-55
2022/05/04 00:35:57;;;;;;;;;;;9.30;90.50;;;;;;5095812;27;36026;-55
2022/05/04 00:38:24;;;;;;;;;;;9.30;90.70;;;;;;5093610;27;36542;-55
2022/05/04 00:40:52;;;;;;;;;;;9.30;90.60;;;;;;5093097;27;37539;-55
2022/05/04 00:43:25;;;;;;;;;;;9.30;90.80;;;;;;5095407;27;38487;-55
2022/05/04 00:45:52;;;;;;;;;;;9.40;91.10;;;;;;5093301;27;35927;-55
2022/05/04 00:48:19;;;;;;;;;;;9.30;91.10;;;;;;5095150;27;35115;-56
2022/05/04 00:50:48;;;;;;;;;;;9.30;90.70;;;;;;5093825;27;37643;-55
2022/05/04 00:53:16;;;;;;;;;;;9.30;91.00;;;;;;5095601;27;40557;-55
2022/05/04 00:55:46;;;;;;;;;;;9.30;90.90;;;;;;5094542;27;38129;-55
2022/05/04 01:01:00;;;;;;;;;;;9.30;91.20;;;;;;5096218;27;40034;-55
2022/05/04 01:03:27;;;;;;;;;;;9.30;90.80;;;;;;5094408;27;37848;-55
2022/05/04 01:05:58;;;;;;;;;;;9.30;90.90;;;;;;5096814;27;35902;-55
2022/05/04 01:08:25;;;;;;;;;;;9.30;90.70;;;;;;5096013;27;37130;-55
2022/05/04 01:10:54;;;;;;;;;;;9.30;90.90;;;;;;5095141;27;37828;-55
2022/05/04 01:13:22;;;;;;;;;;;9.30;91.70;;;;;;5095339;27;38204;-55
2022/05/04 01:15:49;;;;;;;;;;;9.30;91.30;;;;;;5096886;27;39303;-55
2022/05/04 01:18:17;;;;;;;;;;;9.30;91.10;;;;;;5095936;27;36888;-55
2022/05/04 01:20:46;;;;;;;;;;;9.30;91.00;;;;;;5095851;27;37935;-55
2022/05/04 01:23:18;;;;;;;;;;;9.30;90.90;;;;;;5094678;27;36523;-55
2022/05/04 01:25:45;;;;;;;;;;;9.30;90.60;;;;;;5095368;27;38587;-55
2022/05/04 01:28:12;;;;;;;;;;;9.30;90.60;;;;;;5095177;27;35890;-55
2022/05/04 01:30:42;;;;;;;;;;;9.30;91.10;;;;;;5093687;27;37787;-55
2022/05/04 01:33:09;;;;;;;;;;;9.30;91.00;;;;;;5095563;27;38934;-55
2022/05/04 01:35:39;;;;;;;;;;;9.30;90.70;;;;;;5093757;27;38902;-55
2022/05/04 01:38:08;;;;;;;;;;;9.30;91.20;;;;;;5093598;27;37078;-55
2022/05/04 01:40:37;;;;;;;;;;;9.30;91.20;;;;;;5094132;27;36351;-55
2022/05/04 01:43:06;;;;;;;;;;;9.30;91.60;;;;;;5095118;27;38225;-55
2022/05/04 01:45:33;;;;;;;;;;;9.30;91.40;;;;;;5092838;27;37683;-55
2022/05/04 01:48:02;;;;;;;;;;;9.30;90.90;;;;;;5093142;27;37718;-55
2022/05/04 01:50:29;;;;;;;;;;;9.40;91.60;;;;;;5093235;27;37947;-55
2022/05/04 01:52:56;;;;;;;;;;;9.40;91.60;;;;;;5093839;27;38698;-55
2022/05/04 01:55:23;;;;;;;;;;;9.40;91.70;;;;;;5091815;27;37224;-58
2022/05/04 01:57:52;;;;;;;;;;;9.40;90.90;;;;;;5095452;27;38766;-60
2022/05/04 02:00:19;;;;;;;;;;;9.40;91.10;;;;;;5095696;27;37483;-58
2022/05/04 02:02:46;;;;;;;;;;;9.30;91.20;;;;;;5095948;27;37631;-59
2022/05/04 02:05:16;;;;;;;;;;;9.30;90.60;;;;;;5096063;27;37680;-59
2022/05/04 02:07:44;;;;;;;;;;;9.30;90.90;;;;;;5095827;27;36178;-59
2022/05/04 02:10:15;;;;;;;;;;;9.30;91.50;;;;;;5095934;27;33624;-59
2022/05/04 02:12:42;;;;;;;;;;;9.30;91.00;;;;;;5093476;27;38011;-58
2022/05/04 02:15:13;;;;;;;;;;;9.20;91.00;;;;;;5094995;27;37366;-59
2022/05/04 02:17:40;;;;;;;;;;;9.40;91.20;;;;;;5095595;27;36637;-59
2022/05/04 02:20:08;;;;;;;;;;;9.20;91.20;;;;;;5094340;27;37298;-59
2022/05/04 02:22:35;;;;;;;;;;;9.20;91.10;;;;;;5096258;27;38305;-58
2022/05/04 02:25:03;;;;;;;;;;;9.20;91.00;;;;;;5097097;27;37486;-59
2022/05/04 02:27:30;;;;;;;;;;;9.20;90.90;;;;;;5097228;27;35187;-59
2022/05/04 02:29:57;;;;;;;;;;;9.20;91.20;;;;;;5094782;27;38496;-59
2022/05/04 02:32:25;;;;;;;;;;;9.20;91.60;;;;;;5096021;27;38121;-59
2022/05/04 02:37:55;;;;;;;;;;;9.30;91.40;;;;;;5097461;27;38314;-59
2022/05/04 02:40:23;;;;;;;;;;;9.30;91.30;;;;;;5095851;27;40093;-58
2022/05/04 02:42:50;;;;;;;;;;;9.40;91.60;;;;;;5096510;27;37944;-58
2022/05/04 02:45:17;;;;;;;;;;;9.30;92.00;;;;;;5095053;27;38072;-59
2022/05/04 02:47:45;;;;;;;;;;;9.30;91.80;;;;;;5095644;27;36937;-59
2022/05/04 02:50:13;;;;;;;;;;;9.30;91.80;;;;;;5095715;27;37897;-59
2022/05/04 02:52:40;;;;;;;;;;;9.20;91.70;;;;;;5096147;27;36811;-59
2022/05/04 02:55:08;;;;;;;;;;;9.20;92.20;;;;;;5094154;27;38448;-59
2022/05/04 02:57:35;;;;;;;;;;;9.20;92.30;;;;;;5094837;27;36471;-59
2022/05/04 03:00:02;;;;;;;;;;;9.20;92.50;;;;;;5096208;27;37591;-58
2022/05/04 03:02:28;;;;;;;;;;;9.10;92.70;;;;;;5097371;27;38709;-59
2022/05/04 03:04:57;;;;;;;;;;;9.20;92.30;;;;;;5100216;27;37300;-58
2022/05/04 03:07:25;;;;;;;;;;;9.20;92.20;;;;;;5098483;27;35105;-59
2022/05/04 03:09:52;;;;;;;;;;;9.10;92.30;;;;;;5099188;27;39066;-59
2022/05/04 03:12:19;;;;;;;;;;;9.10;92.40;;;;;;5098227;27;37452;-59
2022/05/04 03:14:46;;;;;;;;;;;9.10;92.20;;;;;;5098904;27;37342;-58
2022/05/04 03:17:13;;;;;;;;;;;9.10;92.50;;;;;;5099877;27;36262;-58
2022/05/04 03:19:43;;;;;;;;;;;9.00;92.60;;;;;;5099162;27;37791;-59
2022/05/04 03:22:17;;;;;;;;;;;9.00;92.80;;;;;;5099723;27;37644;-59
2022/05/04 03:24:44;;;;;;;;;;;9.00;92.80;;;;;;5098648;27;38365;-59
2022/05/04 03:27:11;;;;;;;;;;;9.10;92.60;;;;;;5099519;27;36041;-59
2022/05/04 03:29:38;;;;;;;;;;;9.10;93.00;;;;;;5098310;27;37392;-59
2022/05/04 03:32:06;;;;;;;;;;;9.10;92.50;;;;;;5101108;27;38959;-58
2022/05/04 03:34:35;;;;;;;;;;;9.20;91.50;;;;;;5099039;27;37904;-59
2022/05/04 03:37:02;;;;;;;;;;;9.10;91.40;;;;;;5097696;27;36459;-55
2022/05/04 03:39:31;;;;;;;;;;;9.20;91.30;;;;;;5097150;27;38858;-55
2022/05/04 03:41:59;;;;;;;;;;;9.20;91.40;;;;;;5097522;27;38622;-55
2022/05/04 03:44:26;;;;;;;;;;;9.20;91.20;;;;;;5097337;27;36960;-55
2022/05/04 03:46:53;;;;;;;;;;;9.20;91.30;;;;;;5097994;27;39312;-55
2022/05/04 03:49:23;;;;;;;;;;;9.20;91.10;;;;;;5097775;27;39880;-56
2022/05/04 03:51:51;;;;;;;;;;;9.30;91.20;;;;;;5097954;27;38592;-55
2022/05/04 03:54:18;;;;;;;;;;;9.20;90.80;;;;;;5096468;27;37261;-55
2022/05/04 03:56:46;;;;;;;;;;;9.20;91.60;;;;;;5095856;27;37847;-55
2022/05/04 03:59:13;;;;;;;;;;;9.20;91.30;;;;;;5096808;27;36571;-55
2022/05/04 04:01:40;;;;;;;;;;;9.10;91.50;;;;;;5097442;27;40395;-55
2022/05/04 04:04:07;;;;;;;;;;;9.10;91.20;;;;;;5096626;27;39679;-55
2022/05/04 04:06:35;;;;;;;;;;;9.10;91.70;;;;;;5097918;27;36307;-56
2022/05/04 04:09:02;;;;;;;;;;;9.10;92.00;;;;;;5097218;27;36217;-56
2022/05/04 04:11:31;;;;;;;;;;;9.20;91.80;;;;;;5094353;27;38703;-55
2022/05/04 04:14:02;;;;;;;;;;;9.20;91.30;;;;;;5095523;27;37805;-55
2022/05/04 04:16:30;;;;;;;;;;;9.20;91.40;;;;;;5097283;27;36302;-55
2022/05/04 04:18:57;;;;;;;;;;;9.30;90.80;;;;;;5096759;27;37651;-55
2022/05/04 04:24:11;;;;;;;;;;;9.20;91.40;;;;;;5095829;27;39509;-55
2022/05/04 04:26:41;;;;;;;;;;;9.20;91.60;;;;;;5096932;27;35917;-56
2022/05/04 04:29:09;;;;;;;;;;;9.20;91.90;;;;;;5096586;27;36455;-56
2022/05/04 04:31:36;;;;;;;;;;;9.20;91.80;;;;;;5098513;27;38287;-55
2022/05/04 04:34:04;;;;;;;;;;;9.20;91.80;;;;;;5096027;27;38029;-55
2022/05/04 04:36:31;;;;;;;;;;;9.20;91.00;;;;;;5097683;27;35669;-55
2022/05/04 04:38:58;;;;;;;;;;;9.20;90.70;;;;;;5096693;27;36557;-55
2022/05/04 04:41:25;;;;;;;;;;;9.10;90.70;;;;;;5097262;27;37841;-55
2022/05/04 04:43:52;;;;;;;;;;;9.10;90.80;;;;;;5097096;27;37284;-55
2022/05/04 04:46:20;;;;;;;;;;;9.20;91.60;;;;;;5096490;27;36976;-55
2022/05/04 04:48:48;;;;;;;;;;;9.20;91.60;;;;;;5096240;27;40045;-55
2022/05/04 04:51:18;;;;;;;;;;;9.30;90.50;;;;;;5097847;27;37780;-55
2022/05/04 04:53:48;;;;;;;;;;;9.30;90.30;;;;;;5096000;27;37164;-55
2022/05/04 04:56:15;;;;;;;;;;;9.30;90.40;;;;;;5093490;27;37807;-55
2022/05/04 04:58:43;;;;;;;;;;;9.30;90.70;;;;;;5095810;27;37956;-55
2022/05/04 05:01:10;;;;;;;;;;;9.20;90.90;;;;;;5095140;27;38242;-55
2022/05/04 05:03:41;;;;;;;;;;;9.30;90.40;;;;;;5095368;27;37186;-55
2022/05/04 05:06:11;;;;;;;;;;;9.30;90.20;;;;;;5096656;27;38038;-55
2022/05/04 05:08:41;;;;;;;;;;;9.30;90.80;;;;;;5095456;27;37708;-55
2022/05/04 05:11:08;;;;;;;;;;;9.40;90.30;;;;;;5095728;27;37823;-55
2022/05/04 05:16:06;;;;;;;;;;;9.40;90.50;;;;;;5095837;27;37205;-55
2022/05/04 05:16:23;;;;;;;;;;;9.40;90.90;;;;;;5095482;27;36560;-55
2022/05/04 05:18:51;;;;;;;;;;;9.40;90.80;;;;;;5096408;27;38407;-55
2022/05/04 05:21:18;;;;;;;;;;;9.40;90.40;;;;;;5094666;27;37950;-55
2022/05/04 05:23:46;;;;;;;;;;;9.30;90.80;;;;;;5096330;27;36832;-55
2022/05/04 05:26:13;;;;;;;;;;;9.40;90.30;;;;;;5091038;27;36420;-55
2022/05/04 05:28:42;;;;;;;;;;;9.40;90.30;;;;;;5096391;27;39399;-55
2022/05/04 05:31:09;;;;;;;;;;;9.50;90.70;;;;;;5094677;27;36636;-56
2022/05/04 05:33:38;;;;;;;;;;;9.50;90.50;;;;;;5094683;27;38361;-55
2022/05/04 05:36:08;;;;;;;;;;;9.50;90.10;;;;;;5093310;27;36100;-55
2022/05/04 05:38:35;;;;;;;;;;;9.60;90.60;;;;;;5094940;27;39218;-55
2022/05/04 05:41:02;;;;;;;;;;;9.60;90.40;;;;;;5094228;27;36641;-56
2022/05/04 05:43:29;;;;;;;;;;;9.60;90.60;;;;;;5096633;27;37425;-55
2022/05/04 05:45:57;;;;;;;;;;;9.60;89.50;;;;;;5095461;27;35188;-55
2022/05/04 05:48:24;;;;;;;;;;;9.70;90.10;;;;;;5096101;27;37544;-55
2022/05/04 05:50:51;;;;;;;;;;;9.60;88.30;;;;;;5094325;27;36447;-55
2022/05/04 05:53:19;;;;;;;;;;;9.70;83.00;;;;;;5096125;27;37766;-55
2022/05/04 05:55:46;;;;;;;;;;;9.70;80.80;;;;;;5094281;27;36891;-55
2022/05/04 05:58:13;;;;;;;;;;;9.70;83.40;;;;;;5096094;27;36555;-55
2022/05/04 06:00:40;;;;;;;;;;;9.60;84.80;;;;;;5095722;27;38322;-56
2022/05/04 06:03:08;;;;;;;;;;;9.70;86.30;;;;;;5095986;27;37078;-55
2022/05/04 06:05:38;;;;;;;;;;;9.70;88.10;;;;;;5096068;27;36642;-55
2022/05/04 06:08:05;;;;;;;;;;;9.70;87.60;;;;;;5094901;27;38534;-55
2022/05/04 06:10:34;;;;;;;;;;;9.70;87.80;;;;;;5096125;27;39019;-55
2022/05/04 06:13:01;;;;;;;;;;;9.80;87.20;;;;;;5096202;27;36115;-55
2022/05/04 06:15:28;;;;;;;;;;;9.80;85.30;;;;;;5095026;27;36990;-55
2022/05/04 06:17:56;;;;;;;;;;;9.90;85.10;;;;;;5096194;27;36735;-55
2022/05/04 06:20:24;;;;;;;;;;;9.80;82.70;;;;;;5096086;27;39724;-55
2022/05/04 06:22:51;;;;;;;;;;;9.90;85.30;;;;;;5094442;27;38388;-54
2022/05/04 06:25:21;;;;;;;;;;;9.90;83.80;;;;;;5093193;27;37815;-55
2022/05/04 06:27:49;;;;;;;;;;;9.90;84.30;;;;;;5093199;27;38033;-55
2022/05/04 06:35:46;;;;;;;;;;;10.00;84.30;;;;;;5095562;27;38349;-55
2022/05/04 06:38:13;;;;;;;;;;;10.00;83.70;;;;;;5097848;27;38475;-55
2022/05/04 06:40:41;;;;;;;;;;;10.10;85.00;;;;;;5097401;27;38934;-55
2022/05/04 06:43:09;;;;;;;;;;;10.10;84.80;;;;;;5098834;27;37392;-55
2022/05/04 06:45:36;;;;;;;;;;;10.20;82.90;;;;;;5097878;27;36686;-55
2022/05/04 06:48:04;;;;;;;;;;;10.10;81.90;;;;;;5098118;27;38741;-55
2022/05/04 06:50:31;;;;;;;;;;;10.10;81.20;;;;;;5097526;27;38587;-55
2022/05/04 06:52:58;;;;;;;;;;;10.20;80.80;;;;;;5097703;27;37113;-55
2022/05/04 06:55:26;;;;;;;;;;;10.20;78.00;;;;;;5093429;27;35526;-56
2022/05/04 06:57:53;;;;;;;;;;;10.10;77.50;;;;;;5096399;27;39287;-55
2022/05/04 07:00:24;;;;;;;;;;;10.20;76.00;;;;;;5095184;27;37731;-55
2022/05/04 07:02:51;;;;;;;;;;;10.20;77.20;;;;;;5094838;27;37982;-55
2022/05/04 07:05:18;;;;;;;;;;;10.20;76.70;;;;;;5095701;27;37046;-55
2022/05/04 07:07:46;;;;;;;;;;;10.20;75.40;;;;;;5096459;27;37876;-55
2022/05/04 07:10:13;;;;;;;;;;;10.20;76.80;;;;;;5096460;27;37917;-54
2022/05/04 07:12:40;;;;;;;;;;;10.20;78.20;;;;;;5096475;27;37873;-55
2022/05/04 07:15:07;;;;;;;;;;;10.30;75.10;;;;;;5093909;27;36392;-55
2022/05/04 07:17:36;;;;;;;;;;;10.20;76.10;;;;;;5096221;27;37664;-55
2022/05/04 07:20:05;;;;;;;;;;;10.30;77.50;;;;;;5096342;27;37783;-56
2022/05/04 07:22:32;;;;;;;;;;;10.30;78.20;;;;;;5097065;27;37311;-55
2022/05/04 07:25:00;;;;;;;;;;;10.40;76.50;;;;;;5093268;27;36148;-55
2022/05/04 07:27:28;;;;;;;;;;;10.40;76.20;;;;;;5096353;27;37035;-55
2022/05/04 07:29:55;;;;;;;;;;;10.40;75.90;;;;;;5094954;27;39513;-56
2022/05/04 07:32:22;;;;;;;;;;;10.40;76.10;;;;;;5096822;27;37949;-56
2022/05/04 07:34:53;;;;;;;;;;;10.40;76.20;;;;;;5093944;27;36511;-54
2022/05/04 07:37:21;;;;;;;;;;;10.50;77.20;;;;;;5096335;27;36568;-56
2022/05/04 07:42:35;;;;;;;;;;;10.50;77.00;;;;;;5097159;27;40455;-55
2022/05/04 07:45:04;;;;;;;;;;;10.50;75.80;;;;;;5097757;27;34911;-55
2022/05/04 07:47:34;;;;;;;;;;;10.60;77.10;;;;;;5096631;27;36266;-55
2022/05/04 07:50:05;;;;;;;;;;;10.60;77.30;;;;;;5095367;27;38642;-56
2022/05/04 07:52:32;;;;;;;;;;;10.60;75.50;;;;;;5096649;27;38144;-55
2022/05/04 07:54:59;;;;;;;;;;;10.60;76.40;;;;;;5095997;27;36344;-56
2022/05/04 07:57:26;;;;;;;;;;;10.60;77.90;;;;;;5096224;27;38342;-55
2022/05/04 08:05:24;;;;;;;;;;;10.70;75.10;;;;;;5095035;27;38724;-56
2022/05/04 08:07:53;;;;;;;;;;;10.60;73.90;;;;;;5097116;27;39584;-55
2022/05/04 08:10:21;;;;;;;;;;;10.70;76.10;;;;;;5095769;27;37796;-55
2022/05/04 08:12:48;;;;;;;;;;;10.70;77.40;;;;;;5097935;27;37673;-56
2022/05/04 08:15:15;;;;;;;;;;;10.70;78.10;;;;;;5096405;27;35992;-55
2022/05/04 08:17:42;;;;;;;;;;;10.70;76.60;;;;;;5099102;27;38167;-56
2022/05/04 08:20:09;;;;;;;;;;;10.70;76.30;;;;;;5098096;27;36647;-55
2022/05/04 08:22:38;;;;;;;;;;;10.80;78.20;;;;;;5094940;27;38351;-56
2022/05/04 08:25:08;;;;;;;;;;;10.80;76.90;;;;;;5096356;27;35996;-55
2022/05/04 08:27:38;;;;;;;;;;;10.90;76.80;;;;;;5095028;27;38451;-55
2022/05/04 08:30:05;;;;;;;;;;;10.90;78.90;;;;;;5095434;27;38063;-56
2022/05/04 08:32:35;;;;;;;;;;;10.90;78.70;;;;;;5096513;27;37737;-55
2022/05/04 08:35:02;;;;;;;;;;;10.90;78.10;;;;;;5096460;27;36402;-56
2022/05/04 08:37:31;;;;;;;;;;;10.90;76.00;;;;;;5096694;27;37613;-55
2022/05/04 08:40:00;;;;;;;;;;;10.90;76.20;;;;;;5096629;27;39057;-55
2022/05/04 08:42:28;;;;;;;;;;;11.00;76.60;;;;;;5097039;27;37310;-56
2022/05/04 08:44:58;;;;;;;;;;;11.00;78.10;;;;;;5096029;27;36219;-55
2022/05/04 08:47:30;;;;;;;;;;;11.10;78.40;;;;;;5095839;27;37836;-56
2022/05/04 08:49:57;;;;;;;;;;;11.10;79.30;;;;;;5096927;27;37210;-56
2022/05/04 08:52:24;;;;;;;;;;;11.10;73.80;;;;;;5096704;27;37759;-56
2022/05/04 08:54:52;;;;;;;;;;;11.10;77.00;;;;;;5095292;27;35148;-55
2022/05/04 08:57:21;;;;;;;;;;;11.20;76.40;;;;;;5093944;27;37621;-55
2022/05/04 08:59:51;;;;;;;;;;;11.20;76.80;;;;;;5093034;27;36809;-56
2022/05/04 09:02:18;;;;;;;;;;;11.30;76.40;;;;;;5096854;27;37711;-56
2022/05/04 09:04:45;;;;;;;;;;;11.30;76.60;;;;;;5093694;27;35024;-56
2022/05/04 09:07:22;;;;;;;;;;;11.40;76.90;;;;;;5095278;27;37954;-56
2022/05/04 09:09:49;;;;;;;;;;;11.40;75.50;;;;;;5090895;27;37732;-55
2022/05/04 09:12:16;;;;;;;;;;;11.40;75.80;;;;;;5091874;27;39653;-55
2022/05/04 09:14:45;;;;;;;;;;;11.50;75.70;;;;;;5093476;27;36770;-56
2022/05/04 09:17:12;;;;;;;;;;;11.40;73.70;;;;;;5099300;27;39435;-56
2022/05/04 09:19:39;;;;;;;;;;;11.50;74.80;;;;;;5096695;27;36706;-56
2022/05/04 09:22:16;;;;;;;;;;;11.50;72.30;;;;;;5097412;27;36965;-56
2022/05/04 09:24:43;;;;;;;;;;;11.60;73.20;;;;;;5095203;27;35489;-56
2022/05/04 09:27:10;;;;;;;;;;;11.60;73.60;;;;;;5096814;27;37418;-56
2022/05/04 09:29:42;;;;;;;;;;;11.70;74.30;;;;;;5096028;27;38422;-56
2022/05/04 09:32:17;;;;;;;;;;;11.80;74.60;;;;;;5095305;27;38090;-55
2022/05/04 09:34:46;;;;;;;;;;;11.80;73.30;;;;;;5095125;27;36749;-56
2022/05/04 09:45:35;;;;;;;;;;;12.00;73.20;;;;;;5095856;27;38232;-55
2022/05/04 09:48:04;;;;;;;;;;;12.20;73.40;;;;;;5096097;27;37879;-56
2022/05/04 09:50:38;;;;;;;;;;;12.20;71.50;;;;;;5095391;27;38241;-55
2022/05/04 09:53:06;;;;;;;;;;;12.20;73.30;;;;;;5095692;27;38368;-56
2022/05/04 09:55:33;;;;;;;;;;;12.40;72.40;;;;;;5096102;27;37525;-55
2022/05/04 09:58:00;;;;;;;;;;;12.30;70.10;;;;;;5093203;27;37552;-56
2022/05/04 10:00:28;;;;;;;;;;;12.40;69.30;;;;;;5094634;27;39337;-54
2022/05/04 10:02:56;;;;;;;;;;;12.40;69.10;;;;;;5093296;27;37118;-56
2022/05/04 10:05:24;;;;;;;;;;;12.40;69.20;;;;;;5094971;27;36992;-56
2022/05/04 10:07:52;;;;;;;;;;;12.50;67.40;;;;;;5096101;27;36720;-56
2022/05/04 10:10:20;;;;;;;;;;;12.50;65.40;;;;;;5092543;27;38094;-55
2022/05/04 10:12:48;;;;;;;;;;;12.60;69.20;;;;;;5092941;27;36731;-55
2022/05/04 10:15:16;;;;;;;;;;;12.70;69.10;;;;;;5094850;27;37119;-56
2022/05/04 10:17:46;;;;;;;;;;;12.70;68.20;;;;;;5095436;27;37538;-55
2022/05/04 10:20:15;;;;;;;;;;;12.70;66.40;;;;;;5095331;27;38320;-55
2022/05/04 10:22:48;;;;;;;;;;;12.70;65.10;;;;;;5094145;27;38920;-55
2022/05/04 10:25:15;;;;;;;;;;;12.70;66.40;;;;;;5095503;27;36701;-56
2022/05/04 10:27:46;;;;;;;;;;;12.70;63.50;;;;;;5094823;27;37361;-56
2022/05/04 10:30:31;;;;;;;;;;;12.50;63.50;;;;;;5094427;27;37744;-56
2022/05/04 10:32:58;;;;;;;;;;;12.50;66.20;;;;;;5094987;27;35884;-55
2022/05/04 10:35:34;;;;;;;;;;;12.50;66.80;;;;;;5094716;27;36216;-55
2022/05/04 10:38:10;;;;;;;;;;;12.60;71.00;;;;;;5094977;27;39056;-55
2022/05/04 10:40:38;;;;;;;;;;;12.70;69.80;;;;;;5096704;27;38720;-55
2022/05/04 10:43:06;;;;;;;;;;;12.80;68.90;;;;;;5094999;27;36326;-55
2022/05/04 10:45:36;;;;;;;;;;;12.80;69.10;;;;;;5095379;27;35827;-56
2022/05/04 10:48:23;;;;;;;;;;;12.90;69.10;;;;;;5094665;27;38578;-56
2022/05/04 10:50:53;;;;;;;;;;;12.90;71.10;;;;;;5094461;27;38321;-56
2022/05/04 10:53:22;;;;;;;;;;;12.90;70.80;;;;;;5093944;27;37221;-56
2022/05/04 10:55:56;;;;;;;;;;;12.90;69.60;;;;;;5094383;27;36234;-55
2022/05/04 10:58:33;;;;;;;;;;;12.90;68.90;;;;;;5094091;27;37640;-56
2022/05/04 11:01:04;;;;;;;;;;;13.20;71.10;;;;;;5094623;27;37620;-55
2022/05/04 11:03:35;;;;;;;;;;;13.50;69.60;;;;;;5091397;27;37007;-55
2022/05/04 11:06:08;;;;;;;;;;;13.80;68.50;;;;;;5093090;27;36410;-56
2022/05/04 11:08:37;;;;;;;;;;;13.80;65.40;;;;;;5094513;27;37277;-56
2022/05/04 11:11:04;;;;;;;;;;;13.70;63.10;;;;;;5093616;27;37701;-56
2022/05/04 11:13:32;;;;;;;;;;;13.60;63.70;;;;;;5095870;27;38265;-56
2022/05/04 11:16:01;;;;;;;;;;;13.70;66.00;;;;;;5093756;27;36626;-56
2022/05/04 11:18:28;;;;;;;;;;;14.00;65.50;;;;;;5093088;27;38192;-56
2022/05/04 11:21:00;;;;;;;;;;;14.00;64.50;;;;;;5092505;27;36719;-56
2022/05/04 11:23:27;;;;;;;;;;;14.20;61.30;;;;;;5096930;27;38010;-56
2022/05/04 11:25:56;;;;;;;;;;;14.40;58.80;;;;;;5099127;27;36382;-56
2022/05/04 11:28:23;;;;;;;;;;;14.50;62.70;;;;;;5097040;27;41475;-56
2022/05/04 11:30:51;;;;;;;;;;;14.70;63.10;;;;;;5095983;27;40166;-56
2022/05/04 11:33:20;;;;;;;;;;;15.00;64.70;;;;;;5097570;27;36825;-56
2022/05/04 11:35:52;;;;;;;;;;;15.30;62.30;;;;;;5097142;27;36746;-56
2022/05/04 11:38:19;;;;;;;;;;;15.20;59.30;;;;;;5097684;27;37526;-56
2022/05/04 11:40:47;;;;;;;;;;;15.00;59.50;;;;;;5096974;27;38456;-56
2022/05/04 11:43:26;;;;;;;;;;;14.60;58.70;;;;;;5096785;27;36678;-56
2022/05/04 11:45:56;;;;;;;;;;;14.40;59.80;;;;;;5096675;27;36279;-56
2022/05/04 11:48:26;;;;;;;;;;;14.30;58.80;;;;;;5098350;27;36449;-56
2022/05/04 11:50:53;;;;;;;;;;;14.30;65.20;;;;;;5098713;27;38700;-56
2022/05/04 11:53:20;;;;;;;;;;;14.50;64.80;;;;;;5095912;27;36805;-56
2022/05/04 11:55:50;;;;;;;;;;;14.60;62.00;;;;;;5095762;27;36832;-56
2022/05/04 11:58:20;;;;;;;;;;;14.80;63.50;;;;;;5094940;27;39935;-56
2022/05/04 12:00:48;;;;;;;;;;;14.90;57.40;;;;;;5096158;27;37847;-56
2022/05/04 12:03:15;;;;;;;;;;;14.90;60.10;;;;;;5097104;27;37291;-56
2022/05/04 12:05:42;;;;;;;;;;;14.90;57.00;;;;;;5096837;27;36694;-55
2022/05/04 12:08:10;;;;;;;;;;;14.80;57.50;;;;;;5098287;27;39259;-55
2022/05/04 12:10:37;;;;;;;;;;;14.80;59.50;;;;;;5096027;27;37770;-56
2022/05/04 12:13:05;;;;;;;;;;;14.90;62.10;;;;;;5095098;27;37785;-56
2022/05/04 12:15:34;;;;;;;;;;;14.90;62.60;;;;;;5095503;27;38110;-55
2022/05/04 12:18:03;;;;;;;;;;;14.90;61.90;;;;;;5095112;27;39237;-56
2022/05/04 12:20:32;;;;;;;;;;;14.90;61.70;;;;;;5095529;27;39034;-56
2022/05/04 12:22:59;;;;;;;;;;;14.80;57.60;;;;;;5095290;27;36016;-56
2022/05/04 12:25:26;;;;;;;;;;;14.70;57.10;;;;;;5096034;27;36246;-56
2022/05/04 12:27:55;;;;;;;;;;;14.60;57.70;;;;;;5094508;27;36613;-56
2022/05/04 12:33:09;;;;;;;;;;;14.70;62.50;;;;;;5093796;27;39033;-56
2022/05/04 12:35:37;;;;;;;;;;;14.70;60.60;;;;;;5093962;27;38061;-56
2022/05/04 12:38:04;;;;;;;;;;;14.70;60.60;;;;;;5096898;27;37668;-56
2022/05/04 12:40:33;;;;;;;;;;;14.70;62.40;;;;;;5092868;27;38597;-56
2022/05/04 12:43:00;;;;;;;;;;;14.70;61.80;;;;;;5096442;27;37803;-56
2022/05/04 12:45:28;;;;;;;;;;;14.60;61.40;;;;;;5094953;27;36355;-56
2022/05/04 12:47:56;;;;;;;;;;;14.50;61.60;;;;;;5095384;27;40257;-56
2022/05/04 12:50:24;;;;;;;;;;;14.30;61.60;;;;;;5095286;27;38443;-56
2022/05/04 12:52:52;;;;;;;;;;;14.30;62.60;;;;;;5096281;27;37903;-56
2022/05/04 12:55:19;;;;;;;;;;;14.30;65.20;;;;;;5093919;27;35009;-56
2022/05/04 12:57:46;;;;;;;;;;;14.40;62.60;;;;;;5095626;27;37619;-58
2022/05/04 13:00:15;;;;;;;;;;;14.40;63.00;;;;;;5096263;27;37853;-56
2022/05/04 13:02:42;;;;;;;;;;;14.40;64.10;;;;;;5097105;27;38033;-56
2022/05/04 13:05:10;;;;;;;;;;;14.40;65.40;;;;;;5095504;27;37614;-56
2022/05/04 13:07:43;;;;;;;;;;;14.40;62.30;;;;;;5092928;27;37506;-56
2022/05/04 13:10:11;;;;;;;;;;;14.40;62.60;;;;;;5093329;27;39720;-56
2022/05/04 13:12:38;;;;;;;;;;;14.40;60.60;;;;;;5095387;27;40043;-56
2022/05/04 13:15:08;;;;;;;;;;;14.40;63.10;;;;;;5092511;27;36593;-56
2022/05/04 13:17:38;;;;;;;;;;;14.40;63.60;;;;;;5093368;27;36510;-56
2022/05/04 13:20:06;;;;;;;;;;;14.50;64.00;;;;;;5092096;27;37707;-56
2022/05/04 13:22:33;;;;;;;;;;;14.50;61.90;;;;;;5095398;27;37291;-56
2022/05/04 13:25:02;;;;;;;;;;;14.50;61.10;;;;;;5093917;27;35943;-55
2022/05/04 13:27:29;;;;;;;;;;;14.50;64.10;;;;;;5094050;27;37313;-56
2022/05/04 13:29:58;;;;;;;;;;;14.40;60.80;;;;;;5095335;27;38100;-56
2022/05/04 13:32:25;;;;;;;;;;;14.40;63.30;;;;;;5096009;27;37100;-59
2022/05/04 13:34:52;;;;;;;;;;;14.40;63.40;;;;;;5095013;27;36992;-60
2022/05/04 13:37:19;;;;;;;;;;;14.40;63.70;;;;;;5095388;27;37894;-60
2022/05/04 13:39:46;;;;;;;;;;;14.30;64.10;;;;;;5094668;27;36870;-59
2022/05/04 13:42:15;;;;;;;;;;;14.30;64.40;;;;;;5095305;27;36609;-59
2022/05/04 13:44:42;;;;;;;;;;;14.30;62.10;;;;;;5094410;27;36793;-59
2022/05/04 13:47:11;;;;;;;;;;;14.30;59.60;;;;;;5095127;27;38435;-59
2022/05/04 13:49:38;;;;;;;;;;;14.30;63.60;;;;;;5094533;27;37894;-59
2022/05/04 13:54:54;;;;;;;;;;;14.30;63.50;;;;;;5095820;27;37290;-59
2022/05/04 13:57:22;;;;;;;;;;;14.30;66.00;;;;;;5095429;27;38185;-59
2022/05/04 13:59:52;;;;;;;;;;;14.30;65.40;;;;;;5094439;27;37643;-59
2022/05/04 14:02:19;;;;;;;;;;;14.30;64.00;;;;;;5097463;27;37672;-59
2022/05/04 14:04:46;;;;;;;;;;;14.40;66.50;;;;;;5094206;27;35078;-59
2022/05/04 14:07:13;;;;;;;;;;;14.40;64.90;;;;;;5093934;27;37535;-59
2022/05/04 14:09:41;;;;;;;;;;;14.40;65.50;;;;;;5094713;27;36751;-59
2022/05/04 14:12:10;;;;;;;;;;;14.40;64.90;;;;;;5096446;27;38237;-59
2022/05/04 14:17:23;;;;;;;;;;;14.40;65.60;;;;;;5094649;27;38280;-59
2022/05/04 14:19:50;;;;;;;;;;;14.40;65.50;;;;;;5094580;27;38516;-59
2022/05/04 14:22:20;;;;;;;;;;;14.40;65.60;;;;;;5094436;27;35988;-59
2022/05/04 14:24:47;;;;;;;;;;;14.40;65.50;;;;;;5094889;27;37464;-59
2022/05/04 14:27:14;;;;;;;;;;;14.40;65.80;;;;;;5095948;27;38300;-59
2022/05/04 14:29:43;;;;;;;;;;;14.30;64.90;;;;;;5095555;27;37943;-59
2022/05/04 14:32:10;;;;;;;;;;;14.20;63.70;;;;;;5097090;27;37399;-59
2022/05/04 14:34:37;;;;;;;;;;;14.20;64.80;;;;;;5094075;27;35078;-59
2022/05/04 14:37:06;;;;;;;;;;;14.20;65.70;;;;;;5096274;27;38545;-59
2022/05/04 14:39:33;;;;;;;;;;;14.20;65.90;;;;;;5096518;27;38099;-59
2022/05/04 14:42:01;;;;;;;;;;;14.20;67.30;;;;;;5095223;27;37567;-59
2022/05/04 14:44:28;;;;;;;;;;;14.20;67.90;;;;;;5094992;27;35205;-59
2022/05/04 14:46:57;;;;;;;;;;;14.20;66.80;;;;;;5096277;27;38136;-59
2022/05/04 14:49:24;;;;;;;;;;;14.20;67.10;;;;;;5095041;27;38342;-59
2022/05/04 14:51:51;;;;;;;;;;;14.20;68.20;;;;;;5095262;27;37901;-59
2022/05/04 14:54:18;;;;;;;;;;;14.10;67.70;;;;;;5097129;27;38530;-59
2022/05/04 14:56:45;;;;;;;;;;;14.10;68.60;;;;;;5096503;27;39134;-59
2022/05/04 14:59:12;;;;;;;;;;;14.00;70.50;;;;;;5098525;27;36669;-59
2022/05/04 15:01:44;;;;;;;;;;;14.10;69.80;;;;;;5097898;27;38655;-59
2022/05/04 15:06:57;;;;;;;;;;;14.00;68.10;;;;;;5098870;27;38939;-58
2022/05/04 15:09:24;;;;;;;;;;;13.90;68.60;;;;;;5097917;27;39785;-59
2022/05/04 15:11:52;;;;;;;;;;;13.90;68.40;;;;;;5099376;27;37858;-58